sensor_id;sensor_type;location;lat;lon;timestamp;P1;durP1;ratioP1;P2;durP2;ratioP2
75914;SDS011;64593;51.050;13.780;2023-02-14T07:00:53;30.50;;;15.75;;
75914;SDS011;64593;51.050;13.780;2023-02-14T07:06:04;29.38;;;16.15;;
75914;SDS011;64593;51.050;13.780;2023-02-14T07:11:06;34.97;;;15.80;;
75914;SDS011;64593;51.050;13.780;2023-02-14T07:16:08;32.65;;;15.57;;
75914;SDS011;64593;51.050;13.780;2023-02-14T07:21:10;33.95;;;17.40;;
75914;SDS011;64593;51.050;13.780;2023-02-14T07:26:13;32.65;;;16.05;;
75914;SDS011;64593;51.050;13.780;2023-02-14T07:31:45;32.55;;;16.45;;
75914;SDS011;64593;51.050;13.780;2023-02-14T07:36:47;27.27;;;14.77;;
75914;SDS011;64593;51.050;13.780;2023-02-14T07:41:49;20.70;;;10.13;;
75914;SDS011;64593;51.050;13.780;2023-02-14T07:46:53;24.80;;;12.15;;
75914;SDS011;64593;51.050;13.780;2023-02-14T07:51:54;25.52;;;12.40;;
75914;SDS011;64593;51.050;13.780;2023-02-14T07:56:56;31.45;;;15.57;;
75914;SDS011;64593;51.050;13.780;2023-02-14T08:01:58;28.65;;;13.77;;
75914;SDS011;64593;51.050;13.780;2023-02-14T08:07:00;30.38;;;15.10;;
75914;SDS011;64593;51.050;13.780;2023-02-14T08:12:05;26.13;;;12.95;;
75914;SDS011;64593;51.050;13.780;2023-02-14T08:17:25;25.08;;;13.38;;
75914;SDS011;64593;51.050;13.780;2023-02-14T08:22:27;15.27;;;6.53;;
75914;SDS011;64593;51.050;13.780;2023-02-14T08:27:29;24.05;;;10.80;;
75914;SDS011;64593;51.050;13.780;2023-02-14T08:32:31;27.45;;;11.95;;
75914;SDS011;64593;51.050;13.780;2023-02-14T08:37:33;24.88;;;11.82;;
75914;SDS011;64593;51.050;13.780;2023-02-14T08:42:36;25.17;;;11.40;;
75914;SDS011;64593;51.050;13.780;2023-02-14T08:47:40;14.13;;;7.82;;
75914;SDS011;64593;51.050;13.780;2023-02-14T08:52:44;18.35;;;8.90;;
75914;SDS011;64593;51.050;13.780;2023-02-14T09:02:50;18.52;;;10.32;;
75914;SDS011;64593;51.050;13.780;2023-02-14T09:07:53;19.38;;;9.52;;
75914;SDS011;64593;51.050;13.780;2023-02-14T09:12:56;20.67;;;9.43;;
75914;SDS011;64593;51.050;13.780;2023-02-14T09:18:00;18.90;;;10.32;;
75914;SDS011;64593;51.050;13.780;2023-02-14T09:23:04;20.85;;;11.38;;
75914;SDS011;64593;51.050;13.780;2023-02-14T09:28:08;19.83;;;10.45;;
75914;SDS011;64593;51.050;13.780;2023-02-14T09:33:11;7.07;;;3.65;;
75914;SDS011;64593;51.050;13.780;2023-02-14T09:38:13;13.77;;;8.02;;
75914;SDS011;64593;51.050;13.780;2023-02-14T09:43:29;16.50;;;9.60;;
75914;SDS011;64593;51.050;13.780;2023-02-14T09:48:40;19.17;;;10.20;;
75914;SDS011;64593;51.050;13.780;2023-02-14T09:59:00;14.98;;;8.20;;
75914;SDS011;64593;51.050;13.780;2023-02-14T10:04:32;14.57;;;7.50;;
75914;SDS011;64593;51.050;13.780;2023-02-14T10:20:02;15.27;;;8.32;;
75914;SDS011;64593;51.050;13.780;2023-02-14T10:25:13;14.85;;;8.25;;
75914;SDS011;64593;51.050;13.780;2023-02-14T10:30:22;13.60;;;7.25;;
75914;SDS011;64593;51.050;13.780;2023-02-14T10:35:39;10.45;;;6.00;;
75914;SDS011;64593;51.050;13.780;2023-02-14T10:56:56;14.30;;;5.97;;
75914;SDS011;64593;51.050;13.780;2023-02-14T11:01:59;15.80;;;9.40;;
75914;SDS011;64593;51.050;13.780;2023-02-14T11:07:01;18.65;;;11.52;;
75914;SDS011;64593;51.050;13.780;2023-02-14T11:12:07;17.05;;;9.10;;
75914;SDS011;64593;51.050;13.780;2023-02-14T11:17:48;15.50;;;8.50;;
75914;SDS011;64593;51.050;13.780;2023-02-14T11:23:39;13.95;;;7.88;;
75914;SDS011;64593;51.050;13.780;2023-02-14T11:35:28;17.00;;;8.75;;
75914;SDS011;64593;51.050;13.780;2023-02-14T11:40:40;17.95;;;11.48;;
75914;SDS011;64593;51.050;13.780;2023-02-14T11:45:51;17.20;;;10.25;;
75914;SDS011;64593;51.050;13.780;2023-02-14T11:51:41;13.95;;;9.05;;
75914;SDS011;64593;51.050;13.780;2023-02-14T11:57:11;9.88;;;5.55;;
75914;SDS011;64593;51.050;13.780;2023-02-14T12:02:47;13.30;;;6.07;;
75914;SDS011;64593;51.050;13.780;2023-02-14T12:08:04;13.20;;;6.78;;
75914;SDS011;64593;51.050;13.780;2023-02-14T12:13:54;17.85;;;11.18;;
75914;SDS011;64593;51.050;13.780;2023-02-14T12:19:30;21.92;;;13.02;;
75914;SDS011;64593;51.050;13.780;2023-02-14T12:31:43;9.05;;;5.70;;
75914;SDS011;64593;51.050;13.780;2023-02-14T13:19:40;16.30;;;8.77;;
75914;SDS011;64593;51.050;13.780;2023-02-14T13:24:45;15.93;;;10.38;;
75914;SDS011;64593;51.050;13.780;2023-02-14T13:29:50;14.65;;;8.25;;
75914;SDS011;64593;51.050;13.780;2023-02-14T13:34:53;11.32;;;6.93;;
75914;SDS011;64593;51.050;13.780;2023-02-14T13:40:00;14.05;;;8.60;;
75914;SDS011;64593;51.050;13.780;2023-02-14T13:50:38;10.77;;;6.32;;
75914;SDS011;64593;51.050;13.780;2023-02-14T13:56:02;13.20;;;6.88;;
75914;SDS011;64593;51.050;13.780;2023-02-14T14:07:13;14.88;;;8.63;;
75914;SDS011;64593;51.050;13.780;2023-02-14T14:12:01;11.35;;;5.57;;
75914;SDS011;64593;51.050;13.780;2023-02-14T14:17:14;16.15;;;6.65;;
75914;SDS011;64593;51.050;13.780;2023-02-14T14:22:19;12.95;;;6.35;;
75914;SDS011;64593;51.050;13.780;2023-02-14T14:27:39;20.45;;;10.18;;
75914;SDS011;64593;51.050;13.780;2023-02-14T14:32:53;25.15;;;15.32;;
75914;SDS011;64593;51.050;13.780;2023-02-14T14:38:21;14.88;;;8.50;;
75914;SDS011;64593;51.050;13.780;2023-02-14T14:43:28;22.25;;;11.52;;
75914;SDS011;64593;51.050;13.780;2023-02-14T14:54:06;24.05;;;14.45;;
75914;SDS011;64593;51.050;13.780;2023-02-14T15:04:48;16.67;;;8.98;;
75914;SDS011;64593;51.050;13.780;2023-02-14T15:10:22;15.32;;;9.80;;
75914;SDS011;64593;51.050;13.780;2023-02-14T15:15:25;26.33;;;14.20;;
75914;SDS011;64593;51.050;13.780;2023-02-14T15:20:26;25.52;;;13.38;;
75914;SDS011;64593;51.050;13.780;2023-02-14T15:25:32;23.40;;;12.50;;
75914;SDS011;64593;51.050;13.780;2023-02-14T15:30:35;18.40;;;9.35;;
75914;SDS011;64593;51.050;13.780;2023-02-14T15:36:05;14.52;;;7.68;;
75914;SDS011;64593;51.050;13.780;2023-02-14T15:41:09;16.90;;;7.47;;
75914;SDS011;64593;51.050;13.780;2023-02-14T15:46:39;24.85;;;10.88;;
75914;SDS011;64593;51.050;13.780;2023-02-14T15:51:44;26.42;;;12.63;;
75914;SDS011;64593;51.050;13.780;2023-02-14T15:57:22;14.70;;;8.00;;
75914;SDS011;64593;51.050;13.780;2023-02-14T16:03:11;24.05;;;12.63;;
75914;SDS011;64593;51.050;13.780;2023-02-14T16:08:52;31.08;;;16.40;;
75914;SDS011;64593;51.050;13.780;2023-02-14T16:19:34;30.10;;;15.25;;
75914;SDS011;64593;51.050;13.780;2023-02-14T16:24:43;29.02;;;16.23;;
75914;SDS011;64593;51.050;13.780;2023-02-14T16:30:14;32.40;;;15.65;;
75914;SDS011;64593;51.050;13.780;2023-02-14T16:35:42;28.55;;;15.90;;
75914;SDS011;64593;51.050;13.780;2023-02-14T16:40:50;30.35;;;16.23;;
75914;SDS011;64593;51.050;13.780;2023-02-14T16:46:23;28.63;;;16.15;;
75914;SDS011;64593;51.050;13.780;2023-02-14T16:51:29;26.00;;;15.07;;
75914;SDS011;64593;51.050;13.780;2023-02-14T17:02:29;32.60;;;16.20;;
75914;SDS011;64593;51.050;13.780;2023-02-14T17:07:32;31.70;;;17.13;;
75914;SDS011;64593;51.050;13.780;2023-02-14T17:12:35;34.22;;;17.55;;
75914;SDS011;64593;51.050;13.780;2023-02-14T17:18:05;34.60;;;17.05;;
75914;SDS011;64593;51.050;13.780;2023-02-14T17:23:12;39.67;;;17.98;;
75914;SDS011;64593;51.050;13.780;2023-02-14T17:28:14;37.50;;;18.33;;
75914;SDS011;64593;51.050;13.780;2023-02-14T17:33:22;35.95;;;18.80;;
75914;SDS011;64593;51.050;13.780;2023-02-14T17:38:51;40.03;;;18.77;;
75914;SDS011;64593;51.050;13.780;2023-02-14T17:43:54;34.67;;;12.55;;
75914;SDS011;64593;51.050;13.780;2023-02-14T17:49:27;37.90;;;18.55;;
75914;SDS011;64593;51.050;13.780;2023-02-14T17:54:29;28.30;;;12.98;;
75914;SDS011;64593;51.050;13.780;2023-02-14T18:07:04;29.98;;;13.23;;
75914;SDS011;64593;51.050;13.780;2023-02-14T18:19:22;39.08;;;16.63;;
75914;SDS011;64593;51.050;13.780;2023-02-14T18:37:59;25.05;;;12.30;;
75914;SDS011;64593;51.050;13.780;2023-02-14T18:44:11;37.60;;;17.90;;
75914;SDS011;64593;51.050;13.780;2023-02-14T19:16:37;36.38;;;21.13;;
75914;SDS011;64593;51.050;13.780;2023-02-14T20:07:06;37.70;;;18.13;;
75914;SDS011;64593;51.050;13.780;2023-02-14T20:18:23;43.28;;;19.05;;
75914;SDS011;64593;51.050;13.780;2023-02-14T20:23:57;36.97;;;14.80;;
75914;SDS011;64593;51.050;13.780;2023-02-14T20:29:02;39.97;;;17.02;;
75914;SDS011;64593;51.050;13.780;2023-02-14T20:34:08;25.00;;;11.65;;
75914;SDS011;64593;51.050;13.780;2023-02-14T20:40:04;45.85;;;18.40;;
75914;SDS011;64593;51.050;13.780;2023-02-14T20:45:09;65.03;;;25.90;;
75914;SDS011;64593;51.050;13.780;2023-02-14T20:50:11;41.53;;;18.00;;
75914;SDS011;64593;51.050;13.780;2023-02-14T20:55:15;68.10;;;25.08;;
75914;SDS011;64593;51.050;13.780;2023-02-14T21:00:48;54.38;;;21.35;;
75914;SDS011;64593;51.050;13.780;2023-02-14T21:05:53;47.20;;;18.00;;
75914;SDS011;64593;51.050;13.780;2023-02-14T21:11:23;47.70;;;22.60;;
75914;SDS011;64593;51.050;13.780;2023-02-14T21:16:29;29.77;;;11.73;;
75914;SDS011;64593;51.050;13.780;2023-02-14T21:21:33;44.28;;;17.08;;
75914;SDS011;64593;51.050;13.780;2023-02-14T21:26:40;54.25;;;22.65;;
75914;SDS011;64593;51.050;13.780;2023-02-14T21:32:08;57.55;;;26.48;;
75914;SDS011;64593;51.050;13.780;2023-02-14T21:37:10;71.57;;;32.33;;
75914;SDS011;64593;51.050;13.780;2023-02-14T21:42:15;47.03;;;21.38;;
75914;SDS011;64593;51.050;13.780;2023-02-14T21:47:23;57.10;;;27.30;;
75914;SDS011;64593;51.050;13.780;2023-02-14T21:52:24;56.08;;;27.02;;
75914;SDS011;64593;51.050;13.780;2023-02-14T21:57:53;60.42;;;28.40;;
75914;SDS011;64593;51.050;13.780;2023-02-14T22:03:21;35.92;;;14.68;;
75914;SDS011;64593;51.050;13.780;2023-02-14T22:08:23;44.70;;;17.25;;
75914;SDS011;64593;51.050;13.780;2023-02-14T22:13:30;51.53;;;22.15;;
75914;SDS011;64593;51.050;13.780;2023-02-14T22:18:57;41.85;;;17.35;;
75914;SDS011;64593;51.050;13.780;2023-02-14T22:24:25;56.33;;;17.23;;
75914;SDS011;64593;51.050;13.780;2023-02-14T22:29:27;40.92;;;19.02;;
75914;SDS011;64593;51.050;13.780;2023-02-14T22:34:31;39.72;;;18.30;;
75914;SDS011;64593;51.050;13.780;2023-02-14T22:39:37;39.35;;;19.80;;
75914;SDS011;64593;51.050;13.780;2023-02-14T22:44:44;73.65;;;29.50;;
75914;SDS011;64593;51.050;13.780;2023-02-14T22:49:46;49.42;;;20.83;;
75914;SDS011;64593;51.050;13.780;2023-02-14T22:54:54;30.38;;;15.18;;
